createdAt,value
2023-01-10T00:02:19.722Z,97130.80
2023-01-10T00:05:27.474Z,97134.00
2023-01-10T00:08:36.345Z,97135.80
2023-01-10T00:12:02.010Z,97141.20
2023-01-10T00:15:14.325Z,97137.40
2023-01-10T00:18:22.738Z,97140.80
2023-01-10T00:21:32.259Z,97146.20
2023-01-10T00:24:40.061Z,97146.40
2023-01-10T00:27:49.894Z,97144.00
2023-01-10T00:31:01.585Z,97140.80
2023-01-10T00:34:09.876Z,97142.20
2023-01-10T00:37:18.178Z,97137.40
2023-01-10T00:40:26.191Z,97142.20
2023-01-10T00:43:52.059Z,97149.80
2023-01-10T00:47:00.282Z,97142.60
2023-01-10T00:50:10.485Z,97134.20
2023-01-10T00:53:18.486Z,97132.80
2023-01-10T00:56:26.513Z,97142.20
2023-01-10T00:59:34.331Z,97141.40
2023-01-10T01:02:42.303Z,97143.60
2023-01-10T01:05:52.494Z,97149.60
2023-01-10T01:09:00.594Z,97146.60
2023-01-10T01:12:09.281Z,97148.00
2023-01-10T01:15:17.358Z,97139.60
2023-01-10T01:18:26.173Z,97137.60
2023-01-10T01:21:34.536Z,97140.80
2023-01-10T01:24:43.388Z,97146.60
2023-01-10T01:27:52.003Z,97143.80
2023-01-10T01:31:00.476Z,97141.60
2023-01-10T01:34:09.034Z,97135.20
2023-01-10T01:37:19.705Z,97129.40
2023-01-10T01:40:28.677Z,97134.40
2023-01-10T01:44:00.421Z,97130.40
2023-01-10T01:47:17.420Z,97135.60
2023-01-10T01:50:34.095Z,97139.80
2023-01-10T01:53:49.542Z,97140.00
2023-01-10T01:57:02.632Z,97139.20
2023-01-10T02:00:14.888Z,97136.80
2023-01-10T02:03:23.201Z,97138.20
2023-01-10T02:06:31.806Z,97138.80
2023-01-10T02:09:48.890Z,97138.00
2023-01-10T02:13:00.258Z,97134.40
2023-01-10T02:16:09.201Z,97140.20
2023-01-10T02:19:30.400Z,97144.00
2023-01-10T02:23:23.559Z,97158.40
2023-01-10T02:27:07.578Z,97157.00
2023-01-10T02:31:11.850Z,97159.00
2023-01-10T02:34:32.750Z,97170.60
2023-01-10T02:37:58.100Z,97168.80
2023-01-10T02:41:20.395Z,97166.60
2023-01-10T02:44:37.294Z,97170.40
2023-01-10T02:47:46.221Z,97161.40
2023-01-10T02:51:06.106Z,97168.40
2023-01-10T02:54:18.927Z,97163.80
2023-01-10T02:57:48.100Z,97172.20
2023-01-10T03:01:06.731Z,97163.80
2023-01-10T03:04:26.388Z,97171.80
2023-01-10T03:07:45.332Z,97170.20
2023-01-10T03:10:59.674Z,97175.80
2023-01-10T03:14:11.671Z,97182.60
2023-01-10T03:17:23.869Z,97185.00
2023-01-10T03:20:37.048Z,97186.00
2023-01-10T03:23:46.872Z,97192.00
2023-01-10T03:27:05.502Z,97192.40
2023-01-10T03:30:25.726Z,97184.60
2023-01-10T03:33:37.313Z,97191.00
2023-01-10T03:36:57.640Z,97187.20
2023-01-10T03:40:16.993Z,97183.80
2023-01-10T03:43:53.127Z,97177.80
2023-01-10T03:47:09.892Z,97181.40
2023-01-10T03:50:23.708Z,97184.20
2023-01-10T03:53:32.658Z,97177.80
2023-01-10T03:56:53.020Z,97181.60
2023-01-10T04:00:04.779Z,97183.80
2023-01-10T04:03:12.673Z,97187.80
2023-01-10T04:06:20.387Z,97188.40
2023-01-10T04:09:28.243Z,97194.60
2023-01-10T04:12:36.177Z,97202.40
2023-01-10T04:15:44.189Z,97205.00
2023-01-10T04:18:52.343Z,97208.60
2023-01-10T04:22:00.249Z,97210.40
2023-01-10T04:25:09.446Z,97208.00
2023-01-10T04:28:17.306Z,97218.60
2023-01-10T04:31:27.233Z,97213.60
2023-01-10T04:34:35.303Z,97209.40
2023-01-10T04:37:43.978Z,97201.40
2023-01-10T04:40:58.046Z,97197.00
2023-01-10T04:44:06.056Z,97200.60
2023-01-10T04:47:14.013Z,97196.20
2023-01-10T04:50:22.323Z,97203.20
2023-01-10T04:53:30.119Z,97210.40
2023-01-10T04:56:38.478Z,97218.00
2023-01-10T04:59:46.434Z,97232.00
2023-01-10T05:02:58.757Z,97236.40
2023-01-10T05:06:07.241Z,97239.20
2023-01-10T05:09:15.126Z,97247.20
2023-01-10T05:12:22.962Z,97252.80
2023-01-10T05:15:30.726Z,97263.40
2023-01-10T05:18:38.824Z,97264.20
2023-01-10T05:21:46.554Z,97274.00
2023-01-10T05:24:54.820Z,97284.20
2023-01-10T05:28:02.600Z,97293.40
2023-01-10T05:31:14.562Z,97308.20
2023-01-10T05:34:22.373Z,97314.40
2023-01-10T05:37:30.465Z,97319.40
2023-01-10T05:40:38.362Z,97315.60
2023-01-10T05:43:46.496Z,97314.40
2023-01-10T05:46:54.277Z,97317.00
2023-01-10T05:50:02.510Z,97311.60
2023-01-10T05:53:10.444Z,97319.00
2023-01-10T05:56:18.603Z,97311.20
2023-01-10T05:59:28.442Z,97313.20
2023-01-10T06:02:36.979Z,97315.60
2023-01-10T06:05:46.264Z,97324.40
2023-01-10T06:08:56.612Z,97325.60
2023-01-10T06:12:05.220Z,97322.20
2023-01-10T06:15:15.027Z,97334.80
2023-01-10T06:18:23.116Z,97333.40
2023-01-10T06:21:30.899Z,97355.20
2023-01-10T06:24:38.702Z,97359.80
2023-01-10T06:27:47.301Z,97370.60
2023-01-10T06:30:55.100Z,97374.00
2023-01-10T06:34:02.813Z,97380.20
2023-01-10T06:37:10.690Z,97388.40
2023-01-10T06:40:19.055Z,97392.20
2023-01-10T06:43:27.159Z,97398.80
2023-01-10T06:46:34.919Z,97399.20
2023-01-10T06:49:43.397Z,97406.60
2023-01-10T06:52:58.365Z,97418.40
2023-01-10T06:56:07.624Z,97420.20
2023-01-10T06:59:16.111Z,97428.60
2023-01-10T07:02:23.950Z,97427.20
2023-01-10T07:05:32.666Z,97429.80
2023-01-10T07:08:41.984Z,97432.20
2023-01-10T07:11:49.946Z,97440.20
2023-01-10T07:14:57.723Z,97446.20
2023-01-10T07:18:05.999Z,97453.00
2023-01-10T07:21:15.519Z,97459.00
2023-01-10T07:24:23.303Z,97472.60
2023-01-10T07:27:33.292Z,97474.00
2023-01-10T07:30:41.320Z,97483.40
2023-01-10T07:33:50.631Z,97489.60
2023-01-10T07:36:58.408Z,97492.80
2023-01-10T07:40:06.677Z,97496.80
2023-01-10T07:43:14.678Z,97503.20
2023-01-10T07:46:22.482Z,97512.20
2023-01-10T07:49:30.313Z,97518.60
2023-01-10T07:52:38.766Z,97523.40
2023-01-10T07:55:46.507Z,97532.60
2023-01-10T07:58:54.467Z,97540.40
2023-01-10T08:02:02.163Z,97552.00
2023-01-10T08:05:11.929Z,97559.80
2023-01-10T08:08:20.094Z,97568.60
2023-01-10T08:11:27.970Z,97572.60
2023-01-10T08:14:35.859Z,97586.40
2023-01-10T08:17:44.694Z,97593.40
2023-01-10T08:20:54.689Z,97598.80
2023-01-10T08:24:02.511Z,97606.60
2023-01-10T08:27:11.043Z,97609.00
2023-01-10T08:30:20.199Z,97616.60
2023-01-10T08:33:28.689Z,97618.40
2023-01-10T08:36:36.568Z,97632.00
2023-01-10T08:39:44.704Z,97645.20
2023-01-10T08:43:00.706Z,97654.80
2023-01-10T08:46:08.806Z,97664.20
2023-01-10T08:49:17.039Z,97671.00
2023-01-10T08:52:25.030Z,97681.80
2023-01-10T08:55:35.433Z,97678.60
2023-01-10T08:58:43.441Z,97688.60
2023-01-10T09:01:51.520Z,97696.60
2023-01-10T09:04:59.216Z,97696.60
2023-01-10T09:08:08.143Z,97706.60
2023-01-10T09:11:15.939Z,97716.20
2023-01-10T09:14:23.850Z,97731.40
2023-01-10T09:17:31.587Z,97739.00
2023-01-10T09:20:42.701Z,97735.40
2023-01-10T09:23:50.546Z,97750.60
2023-01-10T09:26:58.729Z,97760.40
2023-01-10T09:30:07.337Z,97764.40
2023-01-10T09:33:16.650Z,97762.60
2023-01-10T09:36:24.868Z,97764.20
2023-01-10T09:39:32.747Z,97770.80
2023-01-10T09:42:58.766Z,97772.80
2023-01-10T09:46:16.277Z,97772.60
2023-01-10T09:49:44.025Z,97785.20
2023-01-10T09:53:00.180Z,97789.40
2023-01-10T09:56:11.029Z,97790.60
2023-01-10T09:59:25.007Z,97788.20
2023-01-10T10:02:41.408Z,97786.20
2023-01-10T10:05:51.422Z,97785.80
2023-01-10T10:09:04.199Z,97793.20
2023-01-10T10:12:33.133Z,97796.00
2023-01-10T10:15:52.905Z,97802.80
2023-01-10T10:19:20.026Z,97807.80
2023-01-10T10:22:38.761Z,97805.80
2023-01-10T10:26:02.676Z,97808.00
2023-01-10T10:29:42.145Z,97807.80
2023-01-10T10:33:18.520Z,97820.60
2023-01-10T10:36:36.962Z,97822.00
2023-01-10T10:39:52.501Z,97823.00
2023-01-10T10:43:12.373Z,97823.60
2023-01-10T10:46:20.402Z,97831.40
2023-01-10T10:49:40.250Z,97832.20
2023-01-10T10:52:49.854Z,97841.40
2023-01-10T10:55:57.008Z,97846.00
2023-01-10T10:59:06.959Z,97853.80
2023-01-10T11:02:24.099Z,97855.00
2023-01-10T11:05:41.145Z,97857.00
2023-01-10T11:08:53.552Z,97860.40
2023-01-10T11:12:01.757Z,97862.60
2023-01-10T11:15:12.822Z,97866.40
2023-01-10T11:18:26.677Z,97872.20
2023-01-10T11:21:35.791Z,97880.40
2023-01-10T11:24:55.475Z,97887.00
2023-01-10T11:28:06.286Z,97884.40
2023-01-10T11:31:14.365Z,97884.60
2023-01-10T11:34:31.307Z,97898.40
2023-01-10T11:37:40.040Z,97898.80
2023-01-10T11:40:59.599Z,97898.60
2023-01-10T11:44:26.293Z,97904.40
2023-01-10T11:47:41.617Z,97908.00
2023-01-10T11:50:57.235Z,97914.00
2023-01-10T11:54:08.387Z,97916.20
2023-01-10T11:57:23.998Z,97922.00
2023-01-10T12:00:42.615Z,97926.00
2023-01-10T12:03:50.940Z,97925.80
2023-01-10T12:07:04.745Z,97926.80
2023-01-10T12:10:25.693Z,97932.80
2023-01-10T12:13:47.020Z,97934.40
2023-01-10T12:17:04.892Z,97931.80
2023-01-10T12:20:18.196Z,97937.80
2023-01-10T12:23:29.316Z,97942.40
2023-01-10T12:26:38.189Z,97951.60
2023-01-10T12:29:54.779Z,97956.40
2023-01-10T12:33:08.073Z,97960.40
2023-01-10T12:36:31.529Z,97957.20
2023-01-10T12:39:45.032Z,97963.00
2023-01-10T12:43:17.354Z,97974.00
2023-01-10T12:47:05.117Z,97970.20
2023-01-10T12:50:17.146Z,97981.40
2023-01-10T12:53:36.434Z,97978.80
2023-01-10T12:56:47.479Z,97977.80
2023-01-10T12:59:59.135Z,97987.00
2023-01-10T13:03:14.279Z,97998.60
2023-01-10T13:06:31.780Z,98000.20
2023-01-10T13:09:42.680Z,98007.20
2023-01-10T13:12:59.129Z,98016.40
2023-01-10T13:16:23.980Z,98027.20
2023-01-10T13:19:32.756Z,98026.00
2023-01-10T13:22:41.669Z,98029.00
2023-01-10T13:26:01.411Z,98020.80
2023-01-10T13:29:21.875Z,98024.40
2023-01-10T13:32:36.586Z,98034.40
2023-01-10T13:35:50.099Z,98051.60
2023-01-10T13:39:01.105Z,98057.80
2023-01-10T13:42:58.037Z,98065.60
2023-01-10T13:46:51.536Z,98071.80
2023-01-10T13:49:59.355Z,98081.20
2023-01-10T13:53:53.052Z,98080.60
2023-01-10T13:57:00.830Z,98084.80
2023-01-10T14:00:43.447Z,98094.00
2023-01-10T14:03:59.456Z,98103.20
2023-01-10T14:07:19.658Z,98108.60
2023-01-10T14:10:31.072Z,98115.00
2023-01-10T14:13:40.486Z,98114.60
2023-01-10T14:16:51.280Z,98119.40
2023-01-10T14:20:20.568Z,98123.20
2023-01-10T14:23:36.417Z,98132.00
2023-01-10T14:26:46.781Z,98131.40
2023-01-10T14:30:00.935Z,98142.60
2023-01-10T14:33:17.672Z,98147.40
2023-01-10T14:36:31.788Z,98150.60
2023-01-10T14:39:43.010Z,98150.80
2023-01-10T14:42:55.867Z,98163.00
2023-01-10T14:46:15.825Z,98168.40
2023-01-10T14:49:29.997Z,98174.60
2023-01-10T14:52:43.199Z,98186.40
2023-01-10T14:55:50.931Z,98193.00
2023-01-10T14:58:58.847Z,98201.40
2023-01-10T15:02:24.286Z,98209.00
2023-01-10T15:05:38.551Z,98203.20
2023-01-10T15:08:46.563Z,98198.80
2023-01-10T15:11:56.927Z,98202.20
2023-01-10T15:15:15.121Z,98199.60
2023-01-10T15:18:37.620Z,98206.60
2023-01-10T15:21:48.901Z,98213.20
2023-01-10T15:25:06.671Z,98216.60
2023-01-10T15:28:20.752Z,98224.00
2023-01-10T15:31:30.250Z,98226.20
2023-01-10T15:34:40.058Z,98234.20
2023-01-10T15:37:57.305Z,98248.80
2023-01-10T15:41:07.676Z,98250.80
2023-01-10T15:44:39.429Z,98256.60
2023-01-10T15:48:03.127Z,98262.80
2023-01-10T15:51:24.123Z,98270.80
2023-01-10T15:54:37.888Z,98276.00
2023-01-10T15:57:45.790Z,98281.20
2023-01-10T16:00:56.515Z,98280.40
2023-01-10T16:04:15.315Z,98285.60
2023-01-10T16:07:27.863Z,98283.80
2023-01-10T16:10:37.695Z,98292.60
2023-01-10T16:13:45.547Z,98291.60
2023-01-10T16:16:55.635Z,98288.00
2023-01-10T16:20:03.452Z,98300.20
2023-01-10T16:23:18.769Z,98302.80
2023-01-10T16:26:26.772Z,98304.00
2023-01-10T16:29:35.368Z,98304.00
2023-01-10T16:32:44.092Z,98312.00
2023-01-10T16:35:54.949Z,98320.20
2023-01-10T16:39:09.624Z,98321.40
2023-01-10T16:42:35.046Z,98328.40
2023-01-10T16:45:44.115Z,98333.80
2023-01-10T16:48:53.512Z,98336.60
2023-01-10T16:52:03.774Z,98338.40
2023-01-10T16:55:22.214Z,98346.00
2023-01-10T16:58:30.572Z,98349.20
2023-01-10T17:01:43.648Z,98358.80
2023-01-10T17:04:51.528Z,98366.60
2023-01-10T17:07:59.368Z,98369.00
2023-01-10T17:11:13.288Z,98375.40
2023-01-10T17:14:22.118Z,98372.40
2023-01-10T17:17:30.486Z,98375.60
2023-01-10T17:20:39.091Z,98374.80
2023-01-10T17:23:47.870Z,98384.00
2023-01-10T17:26:55.609Z,98390.80
2023-01-10T17:30:04.828Z,98396.20
2023-01-10T17:33:13.588Z,98394.60
2023-01-10T17:36:22.611Z,98402.60
2023-01-10T17:39:30.978Z,98408.40
2023-01-10T17:42:39.429Z,98411.20
2023-01-10T17:45:50.584Z,98417.80
2023-01-10T17:48:58.525Z,98427.60
2023-01-10T17:52:07.132Z,98421.60
2023-01-10T17:55:15.116Z,98426.40
2023-01-10T17:58:23.908Z,98435.20
2023-01-10T18:01:32.526Z,98437.60
2023-01-10T18:04:41.034Z,98437.20
2023-01-10T18:07:49.311Z,98441.40
2023-01-10T18:11:03.420Z,98447.00
2023-01-10T18:14:29.221Z,98446.00
2023-01-10T18:17:37.315Z,98449.40
2023-01-10T18:20:47.443Z,98448.00
2023-01-10T18:24:02.005Z,98447.80
2023-01-10T18:27:09.728Z,98444.40
2023-01-10T18:30:21.866Z,98447.20
2023-01-10T18:33:29.616Z,98446.40
2023-01-10T18:36:39.995Z,98440.40
2023-01-10T18:39:49.648Z,98443.00
2023-01-10T18:42:57.681Z,98447.20
2023-01-10T18:46:08.461Z,98441.40
2023-01-10T18:49:17.459Z,98444.00
2023-01-10T18:52:25.229Z,98444.00
2023-01-10T18:55:33.281Z,98442.40
2023-01-10T18:58:43.604Z,98454.00
2023-01-10T19:01:51.923Z,98452.60
2023-01-10T19:05:00.180Z,98455.20
2023-01-10T19:08:08.965Z,98458.60
2023-01-10T19:11:19.320Z,98458.20
2023-01-10T19:14:27.742Z,98461.20
2023-01-10T19:17:35.585Z,98462.40
2023-01-10T19:20:43.574Z,98464.40
2023-01-10T19:23:55.184Z,98466.80
2023-01-10T19:27:02.976Z,98471.20
2023-01-10T19:30:13.958Z,98477.00
2023-01-10T19:33:22.515Z,98479.60
2023-01-10T19:36:34.938Z,98476.80
2023-01-10T19:39:43.378Z,98479.60
2023-01-10T19:42:51.506Z,98483.60
2023-01-10T19:45:59.227Z,98485.20
2023-01-10T19:49:08.878Z,98488.20
2023-01-10T19:52:16.595Z,98486.00
2023-01-10T19:55:25.001Z,98487.80
2023-01-10T19:58:33.197Z,98492.20
2023-01-10T20:01:41.839Z,98500.80
2023-01-10T20:04:49.933Z,98496.40
2023-01-10T20:07:58.149Z,98496.40
2023-01-10T20:11:08.226Z,98493.40
2023-01-10T20:14:19.079Z,98504.40
2023-01-10T20:17:27.995Z,98505.40
2023-01-10T20:20:36.669Z,98501.20
2023-01-10T20:23:45.860Z,98508.40
2023-01-10T20:26:54.630Z,98509.00
2023-01-10T20:30:02.432Z,98511.00
2023-01-10T20:33:10.219Z,98514.80
2023-01-10T20:36:21.011Z,98518.20
2023-01-10T20:39:30.646Z,98520.20
2023-01-10T20:42:40.758Z,98524.60
2023-01-10T20:45:48.991Z,98533.60
2023-01-10T20:48:58.809Z,98542.00
2023-01-10T20:52:08.064Z,98550.00
2023-01-10T20:55:19.785Z,98554.00
2023-01-10T20:58:27.875Z,98557.00
2023-01-10T21:01:38.427Z,98564.60
2023-01-10T21:04:46.793Z,98582.60
2023-01-10T21:07:56.432Z,98580.20
2023-01-10T21:11:04.947Z,98586.20
2023-01-10T21:14:13.463Z,98598.00
2023-01-10T21:17:22.015Z,98596.40
2023-01-10T21:20:30.351Z,98606.60
2023-01-10T21:23:38.711Z,98608.40
2023-01-10T21:26:46.678Z,98608.20
2023-01-10T21:29:54.857Z,98608.40
2023-01-10T21:33:06.403Z,98609.00
2023-01-10T21:36:15.266Z,98613.00
2023-01-10T21:39:24.965Z,98617.60
2023-01-10T21:42:38.821Z,98616.60
2023-01-10T21:45:46.726Z,98614.00
2023-01-10T21:48:54.583Z,98616.40
2023-01-10T21:52:02.705Z,98610.40
2023-01-10T21:55:14.925Z,98612.00
2023-01-10T21:58:23.136Z,98610.20
2023-01-10T22:01:31.190Z,98610.20
2023-01-10T22:04:39.762Z,98609.60
2023-01-10T22:07:48.346Z,98607.80
2023-01-10T22:10:56.135Z,98611.60
2023-01-10T22:14:05.773Z,98609.40
2023-01-10T22:17:15.740Z,98609.40
2023-01-10T22:20:22.571Z,98605.60
2023-01-10T22:23:32.832Z,98601.00
2023-01-10T22:26:41.855Z,98604.00
2023-01-10T22:29:50.078Z,98596.40
2023-01-10T22:33:01.072Z,98589.80
2023-01-10T22:36:13.774Z,98587.60
2023-01-10T22:39:22.107Z,98586.80
2023-01-10T22:42:29.907Z,98594.00
2023-01-10T22:45:41.101Z,98591.80
2023-01-10T22:48:49.150Z,98593.80
2023-01-10T22:51:56.983Z,98596.80
2023-01-10T22:55:05.240Z,98599.80
2023-01-10T22:58:12.848Z,98598.60
2023-01-10T23:01:24.645Z,98598.80
2023-01-10T23:04:32.365Z,98603.80
2023-01-10T23:07:40.965Z,98599.20
2023-01-10T23:10:51.000Z,98599.20
2023-01-10T23:13:58.921Z,98593.20
2023-01-10T23:17:06.977Z,98589.80
2023-01-10T23:20:16.763Z,98587.60
2023-01-10T23:23:25.614Z,98585.80
2023-01-10T23:26:33.593Z,98586.20
2023-01-10T23:29:42.221Z,98567.80
2023-01-10T23:32:51.695Z,98569.20
2023-01-10T23:36:00.595Z,98565.80
2023-01-10T23:39:08.874Z,98563.40
2023-01-10T23:42:16.986Z,98562.00
2023-01-10T23:45:24.996Z,98558.60
2023-01-10T23:48:33.494Z,98554.60
2023-01-10T23:51:42.175Z,98547.80
2023-01-10T23:54:50.718Z,98557.40
2023-01-10T23:57:58.719Z,98552.40
